createdAt,value
2018-09-25T00:00:37.285Z,99.90
2018-09-25T00:03:11.864Z,99.90
2018-09-25T00:05:46.261Z,99.90
2018-09-25T00:08:21.238Z,99.90
2018-09-25T00:10:55.838Z,99.90
2018-09-25T00:13:30.226Z,99.90
2018-09-25T00:16:04.764Z,99.90
2018-09-25T00:18:39.289Z,99.90
2018-09-25T00:21:13.910Z,99.90
2018-09-25T00:23:48.360Z,99.90
2018-09-25T00:26:22.670Z,99.90
2018-09-25T00:28:56.978Z,99.90
2018-09-25T00:31:31.334Z,99.90
2018-09-25T00:34:05.906Z,99.90
2018-09-25T00:36:40.384Z,99.90
2018-09-25T00:39:14.726Z,99.90
2018-09-25T00:41:49.375Z,99.90
2018-09-25T00:44:23.969Z,99.90
2018-09-25T00:46:58.411Z,99.90
2018-09-25T00:49:32.681Z,99.90
2018-09-25T00:52:06.966Z,99.90
2018-09-25T00:54:41.566Z,99.90
2018-09-25T00:57:15.907Z,99.90
2018-09-25T00:59:50.181Z,99.90
2018-09-25T01:02:24.865Z,99.90
2018-09-25T01:04:59.318Z,99.90
2018-09-25T01:07:33.854Z,99.90
2018-09-25T01:10:08.613Z,99.90
2018-09-25T01:12:43.068Z,99.90
2018-09-25T01:15:17.915Z,99.90
2018-09-25T01:17:52.334Z,99.90
2018-09-25T01:20:26.693Z,99.90
2018-09-25T01:23:01.338Z,99.90
2018-09-25T01:25:36.022Z,99.90
2018-09-25T01:28:10.536Z,99.90
2018-09-25T01:30:44.850Z,99.90
2018-09-25T01:33:19.275Z,99.90
2018-09-25T01:35:53.734Z,99.90
2018-09-25T01:38:28.272Z,99.90
2018-09-25T01:41:02.559Z,99.90
2018-09-25T01:43:37.114Z,99.90
2018-09-25T01:46:11.313Z,99.90
2018-09-25T01:48:45.619Z,99.90
2018-09-25T01:51:19.950Z,99.90
2018-09-25T01:53:54.617Z,99.90
2018-09-25T01:56:29.097Z,99.90
2018-09-25T01:59:03.382Z,99.90
2018-09-25T02:01:39.297Z,99.90
2018-09-25T02:04:13.746Z,99.90
2018-09-25T02:06:48.058Z,99.90
2018-09-25T02:09:22.308Z,99.90
2018-09-25T02:11:56.625Z,99.90
2018-09-25T02:14:30.945Z,99.90
2018-09-25T02:17:05.506Z,99.90
2018-09-25T02:19:39.859Z,99.90
2018-09-25T02:22:14.211Z,99.90
2018-09-25T02:24:48.897Z,99.90
2018-09-25T02:27:23.301Z,99.90
2018-09-25T02:29:57.709Z,99.90
2018-09-25T02:32:32.089Z,99.90
2018-09-25T02:35:06.675Z,99.90
2018-09-25T02:37:41.564Z,99.90
2018-09-25T02:40:16.278Z,99.90
2018-09-25T02:42:51.199Z,99.90
2018-09-25T02:45:25.603Z,99.90
2018-09-25T02:47:59.957Z,99.90
2018-09-25T02:50:34.317Z,99.90
2018-09-25T02:53:08.742Z,99.90
2018-09-25T02:55:43.073Z,99.90
2018-09-25T02:58:17.654Z,99.90
2018-09-25T03:00:52.117Z,99.90
2018-09-25T03:03:26.729Z,99.90
2018-09-25T03:06:01.095Z,99.90
2018-09-25T03:08:35.562Z,99.90
2018-09-25T03:11:10.200Z,99.90
2018-09-25T03:13:44.617Z,99.90
2018-09-25T03:16:19.145Z,99.90
2018-09-25T03:18:53.409Z,99.90
2018-09-25T03:21:28.055Z,99.90
2018-09-25T03:24:02.772Z,99.90
2018-09-25T03:26:37.320Z,99.90
2018-09-25T03:29:12.246Z,99.90
2018-09-25T03:31:47.064Z,99.90
2018-09-25T03:34:21.318Z,99.90
2018-09-25T03:36:55.672Z,99.90
2018-09-25T03:39:30.228Z,99.90
2018-09-25T03:42:04.976Z,99.90
2018-09-25T03:44:39.586Z,99.90
2018-09-25T03:47:14.136Z,99.90
2018-09-25T03:49:48.764Z,99.90
2018-09-25T03:52:23.070Z,99.90
2018-09-25T03:54:57.798Z,99.90
2018-09-25T03:57:32.250Z,99.90
2018-09-25T04:00:06.730Z,99.90
2018-09-25T04:02:41.266Z,99.90
2018-09-25T04:05:15.545Z,99.90
2018-09-25T04:07:49.822Z,99.90
2018-09-25T04:10:24.166Z,99.90
2018-09-25T04:12:58.630Z,99.90
2018-09-25T04:15:33.138Z,99.90
2018-09-25T04:18:07.647Z,99.90
2018-09-25T04:20:42.033Z,99.90
2018-09-25T04:23:16.594Z,99.90
2018-09-25T04:25:51.311Z,99.90
2018-09-25T04:28:25.743Z,99.90
2018-09-25T04:31:00.157Z,99.90
2018-09-25T04:33:34.462Z,99.90
2018-09-25T04:36:08.783Z,99.90
2018-09-25T04:38:43.210Z,99.90
2018-09-25T04:41:17.593Z,99.90
2018-09-25T04:43:52.005Z,99.90
2018-09-25T04:46:26.425Z,99.90
2018-09-25T04:49:00.845Z,99.90
2018-09-25T04:51:35.284Z,99.90
2018-09-25T04:54:09.761Z,99.90
2018-09-25T04:56:44.928Z,99.90
2018-09-25T04:59:19.367Z,99.90
2018-09-25T05:01:53.738Z,99.90
2018-09-25T05:04:28.317Z,99.90
2018-09-25T05:07:02.739Z,99.90
2018-09-25T05:09:37.146Z,99.90
2018-09-25T05:12:11.803Z,99.90
2018-09-25T05:14:46.294Z,99.90
2018-09-25T05:17:20.802Z,99.90
2018-09-25T05:19:55.118Z,99.90
2018-09-25T05:22:30.885Z,99.90
2018-09-25T05:25:05.341Z,99.90
2018-09-25T05:27:39.701Z,99.90
2018-09-25T05:30:15.279Z,99.90
2018-09-25T05:32:49.839Z,99.90
2018-09-25T05:35:24.290Z,99.90
2018-09-25T05:37:58.745Z,99.90
2018-09-25T05:40:33.220Z,99.90
2018-09-25T05:43:07.709Z,99.90
2018-09-25T05:45:42.214Z,99.90
2018-09-25T05:48:16.616Z,99.90
2018-09-25T05:50:51.009Z,99.90
2018-09-25T05:53:25.594Z,99.90
2018-09-25T05:56:00.103Z,99.90
2018-09-25T05:58:34.815Z,99.90
2018-09-25T06:01:09.360Z,99.90
2018-09-25T06:03:44.055Z,99.90
2018-09-25T06:06:18.599Z,99.90
2018-09-25T06:08:52.930Z,99.90
2018-09-25T06:11:27.484Z,99.90
2018-09-25T06:14:02.099Z,99.90
2018-09-25T06:16:36.805Z,99.90
2018-09-25T06:19:11.430Z,99.90
2018-09-25T06:21:45.899Z,99.90
2018-09-25T06:24:20.518Z,99.90
2018-09-25T06:26:55.019Z,99.90
2018-09-25T06:29:29.412Z,99.90
2018-09-25T06:32:03.953Z,99.90
2018-09-25T06:34:38.443Z,99.90
2018-09-25T06:37:12.933Z,99.90
2018-09-25T06:39:47.536Z,99.90
2018-09-25T06:42:21.908Z,99.90
2018-09-25T06:44:56.423Z,99.90
2018-09-25T06:47:31.284Z,99.90
2018-09-25T06:50:05.765Z,99.90
2018-09-25T06:52:40.269Z,99.90
2018-09-25T06:55:14.712Z,99.90
2018-09-25T06:57:48.899Z,99.90
2018-09-25T07:00:23.421Z,99.90
2018-09-25T07:02:57.697Z,99.90
2018-09-25T07:05:32.081Z,99.90
2018-09-25T07:08:06.695Z,99.90
2018-09-25T07:10:41.428Z,99.90
2018-09-25T07:13:16.093Z,99.90
2018-09-25T07:15:50.663Z,99.90
2018-09-25T07:18:25.174Z,99.90
2018-09-25T07:20:59.520Z,99.90
2018-09-25T07:23:33.982Z,99.90
2018-09-25T07:26:08.507Z,99.90
2018-09-25T07:28:43.008Z,99.90
2018-09-25T07:31:17.628Z,99.90
2018-09-25T07:33:52.234Z,99.90
2018-09-25T07:36:27.173Z,99.90
2018-09-25T07:39:01.775Z,99.90
2018-09-25T07:41:36.136Z,99.90
2018-09-25T07:44:10.857Z,99.90
2018-09-25T07:46:46.338Z,99.90
2018-09-25T07:49:20.901Z,99.90
2018-09-25T07:51:55.305Z,99.90
2018-09-25T07:54:29.998Z,99.90
2018-09-25T07:57:05.491Z,99.90
2018-09-25T07:59:39.793Z,99.90
2018-09-25T08:02:14.325Z,99.90
2018-09-25T08:04:49.105Z,99.90
2018-09-25T08:07:23.654Z,99.90
2018-09-25T08:09:58.026Z,99.90
2018-09-25T08:12:32.523Z,99.90
2018-09-25T08:15:06.927Z,99.90
2018-09-25T08:17:41.343Z,99.90
2018-09-25T08:20:16.220Z,99.90
2018-09-25T08:22:50.688Z,99.90
2018-09-25T08:25:25.177Z,99.90
2018-09-25T08:27:59.648Z,99.90
2018-09-25T08:30:34.061Z,99.90
2018-09-25T08:33:08.415Z,99.90
2018-09-25T08:35:49.990Z,99.90
2018-09-25T08:38:24.764Z,99.90
2018-09-25T08:40:59.346Z,99.90
2018-09-25T08:43:33.640Z,99.90
2018-09-25T08:46:07.995Z,99.90
2018-09-25T08:48:42.486Z,99.90
2018-09-25T08:51:16.916Z,99.90
2018-09-25T08:53:51.415Z,99.90
2018-09-25T08:56:25.955Z,99.90
2018-09-25T08:59:00.310Z,99.90
2018-09-25T09:01:35.013Z,99.90
2018-09-25T09:04:09.354Z,99.90
2018-09-25T09:06:44.020Z,99.90
2018-09-25T09:09:18.609Z,99.90
2018-09-25T09:11:53.034Z,99.90
2018-09-25T09:14:27.369Z,99.90
2018-09-25T09:17:01.892Z,99.90
2018-09-25T09:19:36.441Z,99.90
2018-09-25T09:22:10.790Z,99.90
2018-09-25T09:24:45.252Z,99.90
2018-09-25T09:27:19.812Z,99.90
2018-09-25T09:29:54.192Z,99.90
2018-09-25T09:32:28.622Z,99.90
2018-09-25T09:35:03.331Z,99.90
2018-09-25T09:37:37.726Z,99.90
2018-09-25T09:40:12.014Z,99.90
2018-09-25T09:42:46.380Z,99.90
2018-09-25T09:45:20.748Z,99.90
2018-09-25T09:47:55.343Z,99.90
2018-09-25T09:50:29.772Z,99.90
2018-09-25T09:53:04.095Z,99.90
2018-09-25T09:55:38.722Z,99.90
2018-09-25T09:58:13.159Z,99.90
2018-09-25T10:00:47.482Z,99.90
2018-09-25T10:03:22.054Z,99.90
2018-09-25T10:05:56.818Z,99.90
2018-09-25T10:08:31.121Z,99.90
2018-09-25T10:18:14.484Z,99.90
2018-09-25T10:20:48.872Z,99.90
2018-09-25T10:23:23.263Z,99.90
2018-09-25T10:25:57.845Z,99.90
2018-09-25T10:28:32.219Z,99.90
2018-09-25T10:31:06.561Z,99.90
2018-09-25T10:33:40.938Z,99.90
2018-09-25T10:36:15.518Z,99.90
2018-09-25T10:38:49.831Z,99.90
2018-09-25T10:41:25.493Z,99.90
2018-09-25T10:44:00.087Z,99.90
2018-09-25T10:46:34.582Z,99.90
2018-09-25T10:49:08.879Z,99.90
2018-09-25T10:51:43.210Z,99.90
2018-09-25T10:54:17.813Z,99.90
2018-09-25T10:56:52.169Z,99.90
2018-09-25T10:59:27.665Z,99.90
2018-09-25T11:02:02.618Z,99.90
2018-09-25T11:04:37.112Z,99.90
2018-09-25T11:07:11.853Z,99.90
2018-09-25T11:09:46.517Z,99.90
2018-09-25T11:12:21.035Z,99.90
2018-09-25T11:14:55.774Z,99.90
2018-09-25T11:17:30.310Z,99.90
2018-09-25T11:20:04.701Z,99.90
2018-09-25T11:22:39.343Z,99.90
2018-09-25T11:25:13.845Z,99.90
2018-09-25T11:27:48.513Z,99.90
2018-09-25T11:30:22.849Z,99.90
2018-09-25T11:32:57.608Z,99.40
2018-09-25T11:35:32.073Z,99.90
2018-09-25T11:38:06.434Z,99.90
2018-09-25T11:40:40.783Z,99.90
2018-09-25T11:43:15.648Z,99.90
2018-09-25T11:45:50.198Z,99.50
2018-09-25T11:48:24.678Z,98.90
2018-09-25T11:50:59.223Z,99.90
2018-09-25T11:53:33.654Z,98.10
2018-09-25T11:56:08.132Z,99.60
2018-09-25T11:58:42.510Z,98.60
2018-09-25T12:01:16.823Z,99.90
2018-09-25T12:03:51.180Z,99.90
2018-09-25T12:06:25.905Z,99.90
2018-09-25T12:09:00.398Z,99.90
2018-09-25T12:11:34.820Z,99.90
2018-09-25T12:14:10.551Z,99.90
2018-09-25T12:16:45.191Z,99.90
2018-09-25T12:19:20.455Z,99.90
2018-09-25T12:21:55.014Z,99.00
2018-09-25T12:24:29.340Z,98.90
2018-09-25T12:27:03.997Z,99.90
2018-09-25T12:29:38.430Z,99.90
2018-09-25T12:32:12.861Z,99.90
2018-09-25T12:34:47.151Z,99.90
2018-09-25T12:37:21.491Z,99.50
2018-09-25T12:39:55.846Z,98.50
2018-09-25T12:42:30.388Z,99.80
2018-09-25T12:45:04.718Z,99.20
2018-09-25T12:47:40.146Z,99.20
2018-09-25T12:50:14.723Z,99.90
2018-09-25T12:52:48.996Z,99.90
2018-09-25T12:55:23.326Z,98.50
2018-09-25T12:57:57.669Z,99.90
2018-09-25T13:00:34.107Z,96.80
2018-09-25T13:03:08.465Z,98.00
2018-09-25T13:05:42.969Z,96.00
2018-09-25T13:08:17.599Z,96.40
2018-09-25T13:10:51.978Z,96.70
2018-09-25T13:13:26.566Z,97.20
2018-09-25T13:16:01.292Z,95.30
2018-09-25T13:18:35.589Z,93.90
2018-09-25T13:21:09.964Z,94.10
2018-09-25T13:23:44.383Z,94.00
2018-09-25T13:26:18.651Z,94.70
2018-09-25T13:28:53.160Z,94.50
2018-09-25T13:31:27.397Z,93.80
2018-09-25T13:34:01.820Z,94.30
2018-09-25T13:36:36.376Z,94.00
2018-09-25T13:39:13.329Z,93.50
2018-09-25T13:41:47.973Z,95.20
2018-09-25T13:44:22.641Z,94.10
2018-09-25T13:46:57.092Z,94.20
2018-09-25T13:49:32.493Z,93.10
2018-09-25T13:52:06.982Z,94.20
2018-09-25T13:54:41.547Z,93.70
2018-09-25T13:57:16.196Z,93.50
2018-09-25T13:59:50.978Z,93.30
2018-09-25T14:02:25.569Z,92.90
2018-09-25T14:05:00.247Z,92.50
2018-09-25T14:07:34.625Z,91.30
2018-09-25T14:10:09.006Z,92.40
2018-09-25T14:12:43.224Z,92.20
2018-09-25T14:15:17.666Z,92.10
2018-09-25T14:17:52.057Z,93.10
2018-09-25T14:20:26.594Z,92.10
2018-09-25T14:23:01.158Z,91.70
2018-09-25T14:25:35.694Z,92.60
2018-09-25T14:28:10.328Z,92.20
2018-09-25T14:30:44.919Z,92.80
2018-09-25T14:33:19.257Z,92.60
2018-09-25T14:35:53.759Z,93.00
2018-09-25T14:38:28.402Z,92.80
2018-09-25T14:41:03.011Z,94.00
2018-09-25T14:43:37.666Z,92.60
2018-09-25T14:46:12.119Z,92.90
2018-09-25T14:48:46.601Z,92.40
2018-09-25T14:51:21.129Z,92.20
2018-09-25T14:53:55.815Z,91.30
2018-09-25T14:56:30.223Z,92.20
2018-09-25T14:59:04.566Z,93.30
2018-09-25T15:01:38.830Z,93.10
2018-09-25T15:04:13.486Z,93.50
2018-09-25T15:06:47.854Z,91.60
2018-09-25T15:09:22.230Z,92.30
2018-09-25T15:11:56.575Z,93.10
2018-09-25T15:14:31.092Z,93.60
2018-09-25T15:17:05.684Z,94.90
2018-09-25T15:19:40.051Z,92.90
2018-09-25T15:22:14.596Z,94.10
2018-09-25T15:24:49.216Z,94.30
2018-09-25T15:27:23.813Z,95.20
2018-09-25T15:29:58.121Z,93.90
2018-09-25T15:32:32.510Z,93.80
2018-09-25T15:35:07.136Z,94.30
2018-09-25T15:37:41.640Z,95.40
2018-09-25T15:40:16.126Z,95.90
2018-09-25T15:42:50.637Z,93.50
2018-09-25T15:45:25.198Z,94.20
2018-09-25T15:48:00.015Z,94.10
2018-09-25T15:50:34.186Z,94.60
2018-09-25T15:53:08.758Z,95.00
2018-09-25T15:55:43.078Z,95.50
2018-09-25T15:58:17.687Z,96.20
2018-09-25T16:00:51.934Z,96.80
2018-09-25T16:03:26.560Z,97.10
2018-09-25T16:06:01.147Z,96.60
2018-09-25T16:08:35.439Z,98.70
2018-09-25T16:11:09.726Z,99.70
2018-09-25T16:13:44.030Z,98.00
2018-09-25T16:16:18.741Z,98.30
2018-09-25T16:18:53.267Z,98.10
2018-09-25T16:21:27.837Z,99.60
2018-09-25T16:24:02.218Z,99.80
2018-09-25T16:26:36.896Z,99.90
2018-09-25T16:29:11.738Z,99.90
2018-09-25T16:31:46.294Z,99.90
2018-09-25T16:34:20.735Z,99.90
2018-09-25T16:36:55.370Z,99.90
2018-09-25T16:39:31.017Z,99.90
2018-09-25T16:42:05.500Z,99.90
2018-09-25T16:44:40.166Z,99.90
2018-09-25T16:47:14.611Z,99.90
2018-09-25T16:49:49.268Z,99.90
2018-09-25T16:52:23.710Z,99.90
2018-09-25T16:54:58.111Z,99.90
2018-09-25T16:57:32.535Z,99.90
2018-09-25T17:00:07.315Z,99.90
2018-09-25T17:02:43.019Z,99.90
2018-09-25T17:05:17.482Z,99.90
2018-09-25T17:07:52.211Z,99.90
2018-09-25T17:10:26.764Z,99.90
2018-09-25T17:13:01.516Z,99.90
2018-09-25T17:15:36.354Z,99.90
2018-09-25T17:18:11.463Z,99.90
2018-09-25T17:20:45.936Z,99.90
2018-09-25T17:23:20.329Z,99.90
2018-09-25T17:25:54.782Z,99.90
2018-09-25T17:28:29.295Z,99.90
2018-09-25T17:31:03.611Z,99.90
2018-09-25T17:33:38.065Z,99.90
2018-09-25T17:36:12.758Z,99.90
2018-09-25T17:38:46.926Z,99.90
2018-09-25T17:41:21.425Z,99.90
2018-09-25T17:43:56.138Z,99.90
2018-09-25T17:46:31.870Z,99.90
2018-09-25T17:49:06.324Z,99.90
2018-09-25T17:51:40.710Z,99.90
2018-09-25T17:54:15.061Z,99.90
2018-09-25T17:56:49.666Z,99.90
2018-09-25T17:59:24.128Z,99.90
2018-09-25T18:01:58.578Z,99.90
2018-09-25T18:04:32.919Z,99.90
2018-09-25T18:07:07.434Z,99.90
2018-09-25T18:09:41.769Z,99.90
2018-09-25T18:12:16.135Z,99.90
2018-09-25T18:14:50.514Z,99.90
2018-09-25T18:17:25.337Z,99.90
2018-09-25T18:20:00.476Z,99.90
2018-09-25T18:22:35.232Z,99.90
2018-09-25T18:25:09.722Z,99.90
2018-09-25T18:27:44.374Z,99.90
2018-09-25T18:30:18.850Z,99.90
2018-09-25T18:32:53.398Z,99.90
2018-09-25T18:35:27.977Z,99.90
2018-09-25T18:38:02.350Z,99.90
2018-09-25T18:40:36.860Z,99.90
2018-09-25T18:43:11.490Z,99.90
2018-09-25T18:45:45.890Z,99.90
2018-09-25T18:48:20.246Z,99.90
2018-09-25T18:50:54.852Z,99.90
2018-09-25T18:53:29.757Z,99.90
2018-09-25T18:56:04.153Z,99.90
2018-09-25T18:58:38.678Z,99.90
2018-09-25T19:01:13.082Z,99.90
2018-09-25T19:03:47.578Z,99.90
2018-09-25T19:06:22.143Z,99.90
2018-09-25T19:08:56.726Z,99.90
2018-09-25T19:11:31.263Z,99.90
2018-09-25T19:14:05.990Z,99.90
2018-09-25T19:16:40.572Z,99.90
2018-09-25T19:19:15.254Z,99.90
2018-09-25T19:21:49.845Z,99.90
2018-09-25T19:24:24.420Z,99.90
2018-09-25T19:26:58.782Z,99.90
2018-09-25T19:29:33.090Z,99.90
2018-09-25T19:32:07.407Z,99.90
2018-09-25T19:34:42.058Z,99.90
2018-09-25T19:37:16.397Z,99.90
2018-09-25T19:39:50.694Z,99.90
2018-09-25T19:42:25.317Z,99.90
2018-09-25T19:44:59.958Z,99.90
2018-09-25T19:47:34.442Z,99.90
2018-09-25T19:50:08.970Z,99.90
2018-09-25T19:52:43.231Z,99.90
2018-09-25T19:55:17.730Z,99.90
2018-09-25T19:57:52.265Z,99.90
2018-09-25T20:00:26.888Z,99.90
2018-09-25T20:03:01.600Z,99.90
2018-09-25T20:05:35.963Z,99.90
2018-09-25T20:08:10.522Z,99.90
2018-09-25T20:10:45.046Z,99.90
2018-09-25T20:13:19.366Z,99.90
2018-09-25T20:15:53.621Z,99.90
2018-09-25T20:18:28.189Z,99.90
2018-09-25T20:21:02.691Z,99.90
2018-09-25T20:23:37.260Z,99.90
2018-09-25T20:26:11.655Z,99.90
2018-09-25T20:28:46.130Z,99.90
2018-09-25T20:31:20.434Z,99.90
2018-09-25T20:33:55.031Z,99.90
2018-09-25T20:36:29.438Z,99.90
2018-09-25T20:39:03.787Z,99.90
2018-09-25T20:41:38.272Z,99.90
2018-09-25T20:44:12.804Z,99.90
2018-09-25T20:46:47.310Z,99.90
2018-09-25T20:49:21.722Z,99.90
2018-09-25T20:51:56.158Z,99.90
2018-09-25T20:54:30.816Z,99.90
2018-09-25T20:57:05.426Z,99.90
2018-09-25T20:59:39.959Z,99.90
2018-09-25T21:02:14.282Z,99.90
2018-09-25T21:04:48.693Z,99.90
2018-09-25T21:07:22.997Z,99.90
2018-09-25T21:09:57.402Z,99.90
2018-09-25T21:12:31.732Z,99.90
2018-09-25T21:15:06.255Z,99.90
2018-09-25T21:17:40.790Z,99.90
2018-09-25T21:20:15.280Z,99.90
2018-09-25T21:22:50.019Z,99.90
2018-09-25T21:25:24.492Z,99.90
2018-09-25T21:27:59.473Z,99.90
2018-09-25T21:30:33.909Z,99.90
2018-09-25T21:33:08.259Z,99.90
2018-09-25T21:35:42.778Z,99.90
2018-09-25T21:38:17.155Z,99.90
2018-09-25T21:40:51.558Z,99.90
2018-09-25T21:43:26.194Z,99.90
2018-09-25T21:46:00.690Z,99.90
2018-09-25T21:48:35.353Z,99.90
2018-09-25T21:51:09.793Z,99.90
2018-09-25T21:53:44.210Z,99.90
2018-09-25T21:56:18.916Z,99.90
2018-09-25T21:58:53.396Z,99.90
2018-09-25T22:01:27.763Z,99.90
2018-09-25T22:04:02.178Z,99.90
2018-09-25T22:06:36.733Z,99.90
2018-09-25T22:09:12.281Z,99.90
2018-09-25T22:11:46.656Z,99.90
2018-09-25T22:14:20.862Z,99.90
2018-09-25T22:16:55.457Z,99.90
2018-09-25T22:19:29.874Z,99.90
2018-09-25T22:22:04.363Z,99.90
2018-09-25T22:24:39.018Z,99.90
2018-09-25T22:27:13.504Z,99.90
2018-09-25T22:29:47.946Z,99.90
2018-09-25T22:32:22.138Z,99.90
2018-09-25T22:34:56.728Z,99.90
2018-09-25T22:37:31.066Z,99.90
2018-09-25T22:40:05.426Z,99.90
2018-09-25T22:42:40.002Z,99.90
2018-09-25T22:45:14.406Z,99.90
2018-09-25T22:47:48.873Z,99.90
2018-09-25T22:50:23.210Z,99.90
2018-09-25T22:52:57.547Z,99.90
2018-09-25T22:55:32.333Z,99.90
2018-09-25T22:58:06.743Z,99.90
2018-09-25T23:00:41.321Z,99.90
2018-09-25T23:03:15.998Z,99.90
2018-09-25T23:05:50.419Z,99.90
2018-09-25T23:08:24.842Z,99.90
2018-09-25T23:11:00.320Z,99.90
2018-09-25T23:13:34.780Z,99.90
2018-09-25T23:16:09.331Z,99.90
2018-09-25T23:18:43.707Z,99.90
2018-09-25T23:21:18.288Z,99.90
2018-09-25T23:23:52.692Z,99.90
2018-09-25T23:26:27.241Z,99.90
2018-09-25T23:29:01.735Z,99.90
2018-09-25T23:31:36.248Z,99.90
2018-09-25T23:34:10.774Z,99.90
2018-09-25T23:36:45.131Z,99.90
2018-09-25T23:39:20.278Z,99.90
2018-09-25T23:41:54.293Z,99.90
2018-09-25T23:44:28.761Z,99.90
2018-09-25T23:47:07.839Z,99.90
2018-09-25T23:49:41.243Z,99.90
2018-09-25T23:52:15.694Z,99.90
2018-09-25T23:55:08.578Z,99.90
2018-09-25T23:57:47.740Z,99.90
